Hustisford, Wisconsin
Current Conditions -  °F | °C
As of 10:15 AM on Thursday 29 Jan 2015 (Local Time) from KUNU Reporting Station
Overcast Overcast  
Wind Chill: 20°   Ceiling: 1300
Heat Index: 31°   Visibility: 7mi
Dew Point: 26°   Wind: 16mph
Humidity: 83%   Direction: 310°NW
Pressure: 29.92"   Gusts: 24mph
Location:  43.35°N, 88.6°W
Report Text: KUNU 291615Z AUTO 31014G21KT 7SM OVC013 M01/M03 A2992 RMK AO2 T10071033
Loading
Personal Weather Stations






























Interactive Weather Map New forecast layout! Learn more

10-Day Weather Forecast

Advertisements
Track Severe Weather on mobile